Vanguard — WDD5619 — position and weather

sailwx.info

Track history (hours):
 
Tides and Currents Weather Stations Pressure Air Temp Water Temp Dewpoint Dewpoint Depression Visibility Wind Speed Wind Dir Waves Ship Positions

Vanguard

Owner: Galbraith, Ruth A, Oxnard, CA. More information available from US FCC via Universal Licensing System and Coast Guard Vessel Documentation Center.

Last reported at 2018-Feb-22 21:12 UTC. Time now 2018-Feb-23 16:49 UTC.
Position N 34°10' W 119°14'.

Length 20 m.

Type: Passenger vessel. MMSI: 367131070.

Date/timePositionNaut miles runAvg speedWind from/ knotsBaromVisibWave heightAir tempDewpointWater temp
2018-Feb-22 21:12N 34°10' W 119°14'0 0.0
2018-Feb-22 21:00N 34°10' W 119°14'0 0.0
2018-Feb-22 20:30N 34°10' W 119°14'0 0.0
2018-Feb-22 20:00N 34°10' W 119°14'0 0.0
2018-Feb-22 19:30N 34°10' W 119°14'0 0.0
2018-Feb-22 18:57N 34°10' W 119°14'0 0.0
2018-Feb-22 18:27N 34°10' W 119°14'0 0.0
2018-Feb-22 17:57N 34°10' W 119°14'0 0.0
2018-Feb-21 23:03N 34°10' W 119°14'0 0.0
2018-Feb-21 21:45N 34°10' W 119°14'0 0.0
2018-Feb-21 21:30N 34°10' W 119°14'0 0.0
2018-Feb-21 21:00N 34°10' W 119°14'0 0.0
2018-Feb-21 20:21N 34°10' W 119°14'0 0.0
2018-Feb-21 19:54N 34°10' W 119°14'0 0.0
2018-Feb-21 19:24N 34°10' W 119°14'  
2018-Feb-19 00:45N 34°10' W 119°14'0 0.0
2018-Feb-19 00:27N 34°10' W 119°14'3 6.9
2018-Feb-19 00:00N 34°08' W 119°16'611.8
2018-Feb-18 23:28N 34°02' W 119°20'2 3.6
2018-Feb-18 23:00N 34°01' W 119°21'1 1.8
2018-Feb-18 22:30N 34°02' W 119°21'510.2
2018-Feb-18 22:00N 34°06' W 119°18'510.4
2018-Feb-18 21:30N 34°10' W 119°13'0 0.7
2018-Feb-18 20:59N 34°10' W 119°14'4 7.8
2018-Feb-18 20:30N 34°07' W 119°17'612.2
2018-Feb-18 20:00N 34°03' W 119°22'2 4.1
2018-Feb-18 19:30N 34°01' W 119°23'1 1.2
2018-Feb-18 18:55N 34°01' W 119°22'4 9.2
2018-Feb-18 18:31N 34°04' W 119°19'611.7
2018-Feb-18 18:00N 34°09' W 119°14'2 3.0
2018-Feb-18 17:26N 34°10' W 119°14'0 0.0
2018-Feb-18 16:50N 34°10' W 119°14'0 0.0
2018-Feb-18 00:19N 34°10' W 119°14'3 8.0
2018-Feb-17 23:59N 34°08' W 119°15'712.1
2018-Feb-17 23:26N 34°02' W 119°20'2 3.8
2018-Feb-17 22:54N 34°01' W 119°22'510.8
2018-Feb-17 22:27N 34°04' W 119°17'2 3.4
2018-Feb-17 21:55N 34°04' W 119°15'4 7.5
2018-Feb-17 21:27N 34°07' W 119°13'3 4.8
2018-Feb-17 20:47N 34°10' W 119°14'0 0.0
2018-Feb-17 20:23N 34°10' W 119°14'3 6.0
2018-Feb-17 19:53N 34°08' W 119°16'410.2
2018-Feb-17 19:30N 34°04' W 119°18'4 6.8
2018-Feb-17 18:52N 34°01' W 119°22'4 8.9
2018-Feb-17 18:23N 34°05' W 119°19'410.2
2018-Feb-17 18:00N 34°08' W 119°16'1 0.0
2018-Feb-15 18:06N 34°07' W 119°16'211.8
2018-Feb-15 17:54N 34°08' W 119°14'2 4.6
2018-Feb-15 17:29N 34°10' W 119°14'0 0.0
2018-Feb-15 16:53N 34°10' W 119°14'  
Track history (hours):
 
Tides and Currents Weather Stations Pressure Air Temp Water Temp Dewpoint Dewpoint Depression Visibility Wind Speed Wind Dir Waves Ship Positions

Vanguard

Owner: Galbraith, Ruth A, Oxnard, CA. More information available from US FCC via Universal Licensing System and Coast Guard Vessel Documentation Center.

Last reported at 2018-Feb-22 21:12 UTC. Time now 2018-Feb-23 16:49 UTC.
Position N 34°10' W 119°14'.

Length 20 m.

Type: Passenger vessel. MMSI: 367131070.

Date/timePositionNaut miles runAvg speedWind from/ knotsBaromVisibWave heightAir tempDewpointWater temp
2018-Feb-22 21:12N 34°10' W 119°14'0 0.0
2018-Feb-22 21:00N 34°10' W 119°14'0 0.0
2018-Feb-22 20:30N 34°10' W 119°14'0 0.0
2018-Feb-22 20:00N 34°10' W 119°14'0 0.0
2018-Feb-22 19:30N 34°10' W 119°14'0 0.0
2018-Feb-22 18:57N 34°10' W 119°14'0 0.0
2018-Feb-22 18:27N 34°10' W 119°14'0 0.0
2018-Feb-22 17:57N 34°10' W 119°14'0 0.0
2018-Feb-21 23:03N 34°10' W 119°14'0 0.0
2018-Feb-21 21:45N 34°10' W 119°14'0 0.0
2018-Feb-21 21:30N 34°10' W 119°14'0 0.0
2018-Feb-21 21:00N 34°10' W 119°14'0 0.0
2018-Feb-21 20:21N 34°10' W 119°14'0 0.0
2018-Feb-21 19:54N 34°10' W 119°14'0 0.0
2018-Feb-21 19:24N 34°10' W 119°14'  
2018-Feb-19 00:45N 34°10' W 119°14'0 0.0
2018-Feb-19 00:27N 34°10' W 119°14'3 6.9
2018-Feb-19 00:00N 34°08' W 119°16'611.8
2018-Feb-18 23:28N 34°02' W 119°20'2 3.6
2018-Feb-18 23:00N 34°01' W 119°21'1 1.8
2018-Feb-18 22:30N 34°02' W 119°21'510.2
2018-Feb-18 22:00N 34°06' W 119°18'510.4
2018-Feb-18 21:30N 34°10' W 119°13'0 0.7
2018-Feb-18 20:59N 34°10' W 119°14'4 7.8
2018-Feb-18 20:30N 34°07' W 119°17'612.2
2018-Feb-18 20:00N 34°03' W 119°22'2 4.1
2018-Feb-18 19:30N 34°01' W 119°23'1 1.2
2018-Feb-18 18:55N 34°01' W 119°22'4 9.2
2018-Feb-18 18:31N 34°04' W 119°19'611.7
2018-Feb-18 18:00N 34°09' W 119°14'2 3.0
2018-Feb-18 17:26N 34°10' W 119°14'0 0.0
2018-Feb-18 16:50N 34°10' W 119°14'0 0.0
2018-Feb-18 00:19N 34°10' W 119°14'3 8.0
2018-Feb-17 23:59N 34°08' W 119°15'712.1
2018-Feb-17 23:26N 34°02' W 119°20'2 3.8
2018-Feb-17 22:54N 34°01' W 119°22'510.8
2018-Feb-17 22:27N 34°04' W 119°17'2 3.4
2018-Feb-17 21:55N 34°04' W 119°15'4 7.5
2018-Feb-17 21:27N 34°07' W 119°13'3 4.8
2018-Feb-17 20:47N 34°10' W 119°14'0 0.0
2018-Feb-17 20:23N 34°10' W 119°14'3 6.0
2018-Feb-17 19:53N 34°08' W 119°16'410.2
2018-Feb-17 19:30N 34°04' W 119°18'4 6.8
2018-Feb-17 18:52N 34°01' W 119°22'4 8.9
2018-Feb-17 18:23N 34°05' W 119°19'410.2
2018-Feb-17 18:00N 34°08' W 119°16'1 0.0
2018-Feb-15 18:06N 34°07' W 119°16'211.8
2018-Feb-15 17:54N 34°08' W 119°14'2 4.6
2018-Feb-15 17:29N 34°10' W 119°14'0 0.0
2018-Feb-15 16:53N 34°10' W 119°14'  

Dump ship's entire track history